Time;durP1;ratioP1;P1;durP2;ratioP2;P2;SDS_P1;SDS_P2;PMS_P1;PMS_P2;Temp;Humidity;BMP_temperature;BMP_pressure;BME280_temperature;BME280_humidity;BME280_pressure;Samples;Min_cycle;Max_cycle;Signal;HPM_P1;HPM_P2
2023/03/10 00:01:37;;;;;;;1.55;0.50;;;15.50;50.50;;;;;;5091438;28;45420;-68
2023/03/10 00:04:04;;;;;;;0.90;0.80;;;15.50;50.50;;;;;;5091770;28;45280;-68
2023/03/10 00:06:34;;;;;;;0.82;0.68;;;15.50;50.60;;;;;;5088641;28;47313;-68
2023/03/10 00:09:04;;;;;;;0.75;0.75;;;15.40;50.50;;;;;;5087920;28;45297;-67
2023/03/10 00:11:31;;;;;;;0.70;0.70;;;15.40;50.60;;;;;;5087703;28;45315;-67
2023/03/10 00:13:58;;;;;;;0.70;0.70;;;15.40;50.60;;;;;;5087924;28;45206;-68
2023/03/10 00:16:26;;;;;;;0.82;0.82;;;15.40;50.60;;;;;;5087340;28;46345;-67
2023/03/10 00:18:53;;;;;;;0.88;0.82;;;15.40;50.60;;;;;;5087449;28;45383;-67
2023/03/10 00:21:20;;;;;;;0.73;0.73;;;15.40;50.70;;;;;;5087477;28;45211;-67
2023/03/10 00:23:48;;;;;;;0.50;0.50;;;15.40;50.70;;;;;;5087954;28;45337;-67
2023/03/10 00:26:16;;;;;;;1.88;0.60;;;15.40;50.70;;;;;;5087336;28;46749;-67
2023/03/10 00:28:43;;;;;;;0.68;0.68;;;15.30;50.70;;;;;;5087502;28;45368;-68
2023/03/10 00:31:11;;;;;;;0.55;0.55;;;15.40;50.70;;;;;;5087747;28;45373;-67
2023/03/10 00:33:38;;;;;;;0.75;0.75;;;15.40;50.70;;;;;;5087579;28;45322;-67
2023/03/10 00:36:08;;;;;;;1.38;0.80;;;15.30;50.70;;;;;;5087298;28;45536;-67
2023/03/10 00:38:35;;;;;;;0.47;0.43;;;15.30;50.70;;;;;;5087273;28;45158;-67
2023/03/10 00:41:05;;;;;;;0.82;0.80;;;15.30;50.70;;;;;;5087341;28;45210;-67
2023/03/10 00:43:31;;;;;;;0.63;0.50;;;15.30;50.70;;;;;;5087428;28;45200;-67
2023/03/10 00:45:58;;;;;;;0.60;0.60;;;15.30;50.70;;;;;;5087380;28;45407;-68
2023/03/10 00:48:25;;;;;;;0.73;0.52;;;15.30;50.70;;;;;;5087069;28;45270;-67
2023/03/10 00:50:55;;;;;;;1.63;0.60;;;15.30;50.70;;;;;;5087073;28;45252;-68
2023/03/10 00:53:21;;;;;;;1.33;0.80;;;15.30;50.70;;;;;;5087402;28;45373;-67
2023/03/10 00:55:58;;;;;;;0.98;0.52;;;15.30;50.70;;;;;;5086885;28;46438;-67
2023/03/10 00:58:27;;;;;;;1.23;0.70;;;15.20;50.70;;;;;;5086943;28;45335;-67
2023/03/10 01:00:54;;;;;;;0.50;0.50;;;15.20;50.70;;;;;;5087346;28;45580;-67
2023/03/10 01:03:21;;;;;;;0.95;0.70;;;15.20;50.70;;;;;;5087269;28;45364;-67
2023/03/10 01:05:48;;;;;;;1.58;0.70;;;15.20;50.80;;;;;;5086846;28;46685;-67
2023/03/10 01:08:15;;;;;;;0.60;0.50;;;15.20;50.80;;;;;;5087032;28;45243;-67
2023/03/10 01:10:47;;;;;;;0.50;0.50;;;15.20;50.80;;;;;;5087093;28;45321;-66
2023/03/10 01:13:14;;;;;;;1.05;0.50;;;15.20;50.80;;;;;;5087412;28;45371;-67
2023/03/10 01:15:43;;;;;;;0.80;0.47;;;15.20;50.80;;;;;;5086327;28;46370;-67
2023/03/10 01:18:10;;;;;;;1.27;0.65;;;15.20;50.80;;;;;;5086376;28;45352;-67
2023/03/10 01:20:37;;;;;;;0.50;0.50;;;15.20;51.40;;;;;;5086764;28;45274;-69
2023/03/10 01:23:04;;;;;;;0.60;0.60;;;15.20;50.80;;;;;;5086951;28;45384;-67
2023/03/10 01:25:31;;;;;;;0.93;0.70;;;15.20;50.80;;;;;;5086669;28;47306;-67
2023/03/10 01:27:57;;;;;;;0.50;0.50;;;15.10;50.80;;;;;;5086479;28;45200;-67
2023/03/10 01:30:24;;;;;;;0.52;0.40;;;15.10;50.80;;;;;;5086764;28;45545;-67
2023/03/10 01:32:52;;;;;;;0.82;0.70;;;15.10;50.80;;;;;;5086688;28;45503;-67
2023/03/10 01:35:20;;;;;;;0.50;0.50;;;15.10;50.80;;;;;;5086364;28;45488;-67
2023/03/10 01:37:46;;;;;;;0.60;0.60;;;15.10;50.80;;;;;;5086427;28;45351;-67
2023/03/10 01:40:15;;;;;;;0.43;0.43;;;15.10;50.90;;;;;;5086494;28;45273;-67
2023/03/10 01:42:42;;;;;;;0.40;0.40;;;15.10;50.80;;;;;;5086130;28;45459;-67
2023/03/10 01:45:10;;;;;;;0.40;0.40;;;15.10;51.40;;;;;;5086219;28;45551;-67
2023/03/10 01:47:37;;;;;;;0.45;0.45;;;15.10;50.80;;;;;;5086438;28;45328;-67
2023/03/10 01:50:06;;;;;;;0.57;0.45;;;15.10;50.90;;;;;;5086371;28;45412;-66
2023/03/10 01:52:33;;;;;;;0.52;0.52;;;15.10;50.90;;;;;;5086518;28;45394;-67
2023/03/10 01:55:02;;;;;;;0.93;0.57;;;15.10;50.90;;;;;;5086151;28;45565;-67
2023/03/10 01:57:30;;;;;;;0.40;0.40;;;15.10;51.00;;;;;;5086304;28;45352;-67
2023/03/10 01:59:58;;;;;;;0.50;0.50;;;15.10;51.00;;;;;;5086183;28;45234;-67
2023/03/10 02:02:25;;;;;;;0.60;0.60;;;15.10;51.00;;;;;;5086291;28;45305;-67
2023/03/10 02:04:52;;;;;;;0.65;0.47;;;15.10;51.00;;;;;;5085939;28;47330;-67
2023/03/10 02:07:23;;;;;;;0.65;0.50;;;15.10;51.00;;;;;;5085874;28;45206;-67
2023/03/10 02:09:50;;;;;;;0.50;0.45;;;15.10;51.10;;;;;;5085981;28;45268;-67
2023/03/10 02:12:17;;;;;;;0.60;0.60;;;15.10;51.10;;;;;;5086400;28;45339;-67
2023/03/10 02:14:44;;;;;;;0.60;0.60;;;15.00;51.00;;;;;;5085763;28;46351;-67
2023/03/10 02:17:15;;;;;;;0.60;0.60;;;15.00;51.10;;;;;;5085988;28;45356;-67
2023/03/10 02:19:53;;;;;;;0.43;0.43;;;15.00;51.10;;;;;;5085915;28;45236;-67
2023/03/10 02:22:21;;;;;;;0.38;0.38;;;15.00;51.10;;;;;;5086029;28;45432;-67
2023/03/10 02:24:51;;;;;;;0.57;0.47;;;15.00;51.60;;;;;;5085966;28;46414;-67
2023/03/10 02:27:23;;;;;;;0.80;0.50;;;15.00;51.10;;;;;;5085925;28;45408;-68
2023/03/10 02:29:52;;;;;;;0.93;0.60;;;15.00;51.10;;;;;;5084876;28;45312;-68
2023/03/10 02:32:19;;;;;;;0.75;0.60;;;15.00;51.10;;;;;;5086038;28;45460;-73
2023/03/10 02:34:46;;;;;;;0.43;0.43;;;15.00;51.10;;;;;;5085428;28;45585;-67
2023/03/10 02:37:20;;;;;;;0.50;0.50;;;15.00;51.20;;;;;;5085664;28;45388;-67
2023/03/10 02:39:47;;;;;;;1.08;0.50;;;15.00;51.20;;;;;;5086121;28;45351;-67
2023/03/10 02:42:14;;;;;;;0.50;0.40;;;15.00;51.20;;;;;;5085770;28;45504;-67
2023/03/10 02:44:42;;;;;;;0.45;0.45;;;15.00;51.20;;;;;;5085540;28;45366;-68
2023/03/10 02:47:09;;;;;;;0.95;0.57;;;15.00;51.20;;;;;;5085476;28;45203;-67
2023/03/10 02:49:36;;;;;;;1.05;0.70;;;15.00;51.20;;;;;;5085817;28;45308;-67
2023/03/10 02:52:03;;;;;;;1.27;0.63;;;14.90;51.20;;;;;;5085642;28;45441;-67
2023/03/10 02:54:30;;;;;;;0.40;0.40;;;15.00;51.20;;;;;;5085093;28;46384;-67
2023/03/10 02:56:56;;;;;;;0.40;0.40;;;15.00;51.20;;;;;;5085312;28;45206;-67
2023/03/10 02:59:23;;;;;;;0.50;0.50;;;15.00;51.20;;;;;;5085074;28;45298;-66
2023/03/10 03:01:51;;;;;;;0.85;0.50;;;15.00;51.70;;;;;;5085330;28;45510;-68
2023/03/10 03:04:18;;;;;;;1.77;0.50;;;14.90;51.10;;;;;;5085444;28;45462;-67
2023/03/10 03:06:45;;;;;;;0.40;0.40;;;14.90;51.70;;;;;;5084964;28;45287;-67
2023/03/10 03:09:12;;;;;;;0.50;0.50;;;14.90;51.10;;;;;;5085148;28;45440;-67
2023/03/10 03:11:39;;;;;;;0.75;0.43;;;14.90;51.20;;;;;;5085309;28;45365;-67
2023/03/10 03:14:06;;;;;;;0.30;0.30;;;14.90;51.10;;;;;;5084958;28;45417;-67
2023/03/10 03:16:33;;;;;;;0.38;0.38;;;14.90;51.10;;;;;;5084485;28;45490;-67
2023/03/10 03:19:01;;;;;;;0.40;0.30;;;14.90;51.20;;;;;;5085129;28;45267;-67
2023/03/10 03:21:28;;;;;;;0.43;0.40;;;14.90;51.10;;;;;;5085044;28;45502;-67
2023/03/10 03:23:55;;;;;;;0.63;0.50;;;14.90;51.20;;;;;;5084679;28;46423;-68
2023/03/10 03:26:24;;;;;;;0.55;0.50;;;14.90;51.10;;;;;;5084833;28;45321;-68
2023/03/10 03:28:51;;;;;;;0.40;0.40;;;14.90;51.20;;;;;;5084866;28;45398;-67
2023/03/10 03:31:18;;;;;;;0.40;0.40;;;14.90;51.20;;;;;;5084995;28;45249;-67
2023/03/10 03:33:45;;;;;;;0.80;0.52;;;14.90;51.20;;;;;;5084725;28;46777;-67
2023/03/10 03:36:13;;;;;;;0.32;0.30;;;14.90;51.20;;;;;;5084937;28;45299;-67
2023/03/10 03:38:40;;;;;;;0.57;0.57;;;14.90;51.20;;;;;;5085004;28;45335;-67
2023/03/10 03:41:07;;;;;;;0.77;0.40;;;14.90;51.30;;;;;;5086837;28;45375;-67
2023/03/10 03:43:34;;;;;;;0.93;0.50;;;14.90;51.10;;;;;;5088225;28;46123;-67
2023/03/10 03:46:00;;;;;;;0.50;0.50;;;14.90;51.20;;;;;;5088306;28;45286;-67
2023/03/10 03:48:28;;;;;;;0.52;0.40;;;14.90;51.10;;;;;;5088222;28;45311;-67
2023/03/10 03:50:54;;;;;;;0.77;0.60;;;14.80;51.10;;;;;;5088331;28;45324;-67
2023/03/10 03:53:26;;;;;;;0.40;0.40;;;14.80;51.10;;;;;;5087857;28;46385;-67
2023/03/10 03:55:52;;;;;;;0.40;0.40;;;14.80;51.10;;;;;;5087972;28;45297;-67
2023/03/10 03:58:19;;;;;;;0.50;0.50;;;14.80;51.10;;;;;;5088007;28;45474;-67
2023/03/10 04:00:46;;;;;;;0.30;0.30;;;14.80;51.10;;;;;;5088256;28;45326;-68
2023/03/10 04:03:13;;;;;;;0.30;0.30;;;14.80;51.10;;;;;;5087680;28;46678;-68
2023/03/10 04:05:40;;;;;;;0.30;0.30;;;14.80;51.20;;;;;;5087612;28;46074;-67
2023/03/10 04:08:07;;;;;;;0.30;0.30;;;14.80;51.10;;;;;;5088102;28;45219;-67
2023/03/10 04:10:35;;;;;;;0.47;0.30;;;14.80;51.10;;;;;;5088068;28;45411;-67
2023/03/10 04:13:02;;;;;;;0.80;0.80;;;14.80;51.20;;;;;;5087615;28;45332;-67
2023/03/10 04:15:29;;;;;;;0.60;0.50;;;14.80;51.10;;;;;;5087187;28;45336;-67
2023/03/10 04:17:57;;;;;;;0.50;0.50;;;14.80;51.20;;;;;;5087713;28;45353;-67
2023/03/10 04:20:24;;;;;;;0.90;0.45;;;14.80;51.10;;;;;;5087978;28;45301;-67
2023/03/10 04:22:51;;;;;;;1.40;0.60;;;14.80;51.10;;;;;;5087289;28;46666;-67
2023/03/10 04:25:18;;;;;;;0.47;0.43;;;14.80;51.10;;;;;;5087743;28;45257;-66
2023/03/10 04:27:47;;;;;;;0.40;0.40;;;14.80;51.20;;;;;;5087870;28;45247;-67
2023/03/10 04:30:14;;;;;;;0.30;0.30;;;14.70;51.30;;;;;;5087678;28;45368;-67
2023/03/10 04:32:41;;;;;;;0.30;0.30;;;14.80;51.20;;;;;;5087538;28;45336;-66
2023/03/10 04:35:09;;;;;;;0.63;0.55;;;14.70;51.20;;;;;;5087258;28;45280;-67
2023/03/10 04:37:36;;;;;;;0.50;0.50;;;14.80;51.30;;;;;;5087728;28;45384;-66
2023/03/10 04:40:07;;;;;;;0.52;0.43;;;14.80;51.20;;;;;;5087506;28;45468;-66
2023/03/10 04:42:34;;;;;;;1.08;0.47;;;14.70;51.10;;;;;;5086940;28;46388;-67
2023/03/10 04:45:02;;;;;;;0.20;0.20;;;14.70;51.20;;;;;;5087257;28;45206;-67
2023/03/10 04:47:29;;;;;;;0.38;0.38;;;14.70;51.20;;;;;;5087494;28;45363;-67
2023/03/10 04:49:56;;;;;;;0.32;0.32;;;14.70;51.20;;;;;;5087382;28;45450;-66
2023/03/10 04:52:22;;;;;;;0.43;0.35;;;14.70;51.30;;;;;;5086122;27;45234;-67
2023/03/10 04:54:49;;;;;;;0.38;0.38;;;14.70;51.30;;;;;;5087094;28;45260;-67
2023/03/10 04:57:16;;;;;;;0.40;0.40;;;14.70;51.30;;;;;;5087085;28;45340;-67
2023/03/10 04:59:43;;;;;;;1.15;0.40;;;14.70;51.30;;;;;;5087249;28;45405;-67
2023/03/10 05:02:11;;;;;;;0.40;0.40;;;14.70;51.30;;;;;;5086847;28;45603;-67
2023/03/10 05:04:39;;;;;;;0.43;0.43;;;14.60;51.70;;;;;;5086569;28;45358;-67
2023/03/10 05:07:06;;;;;;;0.47;0.40;;;14.60;51.20;;;;;;5087077;28;45325;-67
2023/03/10 05:09:35;;;;;;;0.40;0.40;;;14.60;51.30;;;;;;5087238;28;45357;-67
2023/03/10 05:12:01;;;;;;;0.20;0.20;;;14.60;51.30;;;;;;5086560;28;46280;-67
2023/03/10 05:14:28;;;;;;;1.58;0.35;;;14.60;51.30;;;;;;5086565;28;45329;-67
2023/03/10 05:16:55;;;;;;;0.40;0.40;;;14.60;51.30;;;;;;5086705;28;45282;-67
2023/03/10 05:19:24;;;;;;;0.60;0.30;;;14.60;51.30;;;;;;5086978;28;45604;-67
2023/03/10 05:21:50;;;;;;;0.17;0.17;;;14.60;51.40;;;;;;5086602;28;45356;-67
2023/03/10 05:24:17;;;;;;;0.88;0.50;;;14.60;51.40;;;;;;5086452;28;45384;-68
2023/03/10 05:26:44;;;;;;;0.40;0.40;;;14.60;51.30;;;;;;5086715;28;45292;-67
2023/03/10 05:29:11;;;;;;;0.40;0.40;;;14.60;51.40;;;;;;5087126;28;45327;-67
2023/03/10 05:31:38;;;;;;;1.05;0.40;;;14.60;51.40;;;;;;5086419;28;45437;-68
2023/03/10 05:34:05;;;;;;;0.20;0.20;;;14.60;51.40;;;;;;5086443;28;45416;-67
2023/03/10 05:36:33;;;;;;;0.40;0.40;;;14.60;51.30;;;;;;5086895;28;45143;-68
2023/03/10 05:39:00;;;;;;;0.70;0.50;;;14.60;51.40;;;;;;5086759;28;45254;-67
2023/03/10 05:41:27;;;;;;;0.22;0.20;;;14.60;51.30;;;;;;5086216;28;45457;-67
2023/03/10 05:43:54;;;;;;;0.40;0.40;;;14.60;51.30;;;;;;5086169;28;45383;-68
2023/03/10 05:46:21;;;;;;;0.57;0.40;;;14.60;51.20;;;;;;5086344;28;45317;-68
2023/03/10 05:48:48;;;;;;;1.00;0.40;;;14.60;51.30;;;;;;5086570;28;45319;-67
2023/03/10 05:51:15;;;;;;;0.40;0.40;;;14.60;51.30;;;;;;5086127;28;46679;-67
2023/03/10 05:53:43;;;;;;;1.13;0.40;;;14.60;51.90;;;;;;5086070;28;45316;-67
2023/03/10 05:56:11;;;;;;;0.20;0.20;;;14.50;51.30;;;;;;5085935;28;45391;-68
2023/03/10 05:58:38;;;;;;;0.30;0.30;;;14.50;51.30;;;;;;5086549;28;45255;-67
2023/03/10 06:01:05;;;;;;;0.20;0.20;;;14.60;51.20;;;;;;5086078;28;45346;-67
2023/03/10 06:03:32;;;;;;;0.32;0.32;;;14.50;51.30;;;;;;5085779;28;45376;-67
2023/03/10 06:05:59;;;;;;;0.30;0.30;;;14.60;51.30;;;;;;5085950;28;45370;-67
2023/03/10 06:08:26;;;;;;;1.20;0.40;;;14.50;51.20;;;;;;5086137;28;45404;-67
2023/03/10 06:10:55;;;;;;;0.30;0.30;;;14.50;51.30;;;;;;5085804;28;45304;-67
2023/03/10 06:13:22;;;;;;;0.40;0.40;;;14.60;51.20;;;;;;5085701;28;45269;-67
2023/03/10 06:15:50;;;;;;;0.45;0.43;;;14.50;51.20;;;;;;5085684;28;45263;-67
2023/03/10 06:18:17;;;;;;;0.90;0.40;;;14.50;51.20;;;;;;5086140;28;45310;-68
2023/03/10 06:20:44;;;;;;;0.32;0.32;;;14.50;51.20;;;;;;5085631;28;46321;-67
2023/03/10 06:23:11;;;;;;;0.75;0.40;;;14.50;51.20;;;;;;5085552;28;45340;-67
2023/03/10 06:25:37;;;;;;;0.38;0.38;;;14.50;51.20;;;;;;5085983;28;45197;-67
2023/03/10 06:28:06;;;;;;;0.25;0.22;;;14.50;51.20;;;;;;5086081;28;45377;-67
2023/03/10 06:30:33;;;;;;;1.63;0.30;;;14.50;51.30;;;;;;5085563;28;46521;-67
2023/03/10 06:33:00;;;;;;;2.42;0.50;;;14.50;51.20;;;;;;5085777;28;45388;-67
2023/03/10 06:35:27;;;;;;;1.38;0.50;;;14.50;51.20;;;;;;5085707;28;45379;-67
2023/03/10 06:37:53;;;;;;;0.45;0.45;;;14.50;51.20;;;;;;5085735;28;45313;-67
2023/03/10 06:40:21;;;;;;;0.40;0.40;;;14.50;51.20;;;;;;5085498;28;46357;-67
2023/03/10 06:42:47;;;;;;;0.38;0.38;;;14.50;51.30;;;;;;5085477;28;45423;-67
2023/03/10 06:45:16;;;;;;;0.47;0.30;;;14.50;51.20;;;;;;5085698;28;45307;-66
2023/03/10 06:47:43;;;;;;;0.65;0.43;;;14.50;51.30;;;;;;5085479;28;45408;-67
2023/03/10 06:50:12;;;;;;;0.30;0.30;;;14.50;51.30;;;;;;5085189;28;46652;-67
2023/03/10 06:52:38;;;;;;;0.40;0.40;;;14.50;51.40;;;;;;5085476;28;45316;-67
2023/03/10 06:55:06;;;;;;;0.20;0.20;;;14.50;51.30;;;;;;5085225;28;45337;-67
2023/03/10 06:57:34;;;;;;;0.60;0.50;;;14.50;51.40;;;;;;5085380;28;45509;-67
2023/03/10 07:00:01;;;;;;;0.30;0.30;;;14.50;51.40;;;;;;5085063;28;46362;-67
2023/03/10 07:02:29;;;;;;;0.32;0.32;;;14.50;51.50;;;;;;5085077;28;45352;-67
2023/03/10 07:04:56;;;;;;;0.45;0.40;;;14.50;51.40;;;;;;5084996;28;45392;-67
2023/03/10 07:07:23;;;;;;;0.22;0.22;;;14.40;51.50;;;;;;5085558;28;45591;-69
2023/03/10 07:09:50;;;;;;;0.28;0.28;;;14.40;51.60;;;;;;5085006;28;45372;-67
2023/03/10 07:12:17;;;;;;;0.30;0.30;;;14.40;52.10;;;;;;5084995;28;45375;-67
2023/03/10 07:14:44;;;;;;;0.30;0.30;;;14.40;51.60;;;;;;5085298;27;45281;-67
2023/03/10 07:17:11;;;;;;;0.30;0.30;;;14.40;51.70;;;;;;5088676;28;45384;-67
2023/03/10 07:19:39;;;;;;;0.20;0.20;;;14.40;52.10;;;;;;5088651;28;46740;-67
2023/03/10 07:22:06;;;;;;;0.38;0.32;;;14.40;51.70;;;;;;5088508;28;45444;-67
2023/03/10 07:24:33;;;;;;;0.35;0.35;;;14.40;51.60;;;;;;5088736;28;45424;-67
2023/03/10 07:27:00;;;;;;;0.52;0.30;;;14.40;51.60;;;;;;5088974;28;45408;-67
2023/03/10 07:29:27;;;;;;;0.22;0.22;;;14.40;51.50;;;;;;5088440;28;47303;-67
2023/03/10 07:31:54;;;;;;;0.45;0.45;;;14.40;51.50;;;;;;5088722;28;45385;-67
2023/03/10 07:34:21;;;;;;;0.25;0.25;;;14.40;51.50;;;;;;5088611;28;45497;-67
2023/03/10 07:36:49;;;;;;;0.30;0.30;;;14.40;51.50;;;;;;5088638;28;45374;-67
2023/03/10 07:39:16;;;;;;;0.50;0.40;;;14.40;51.60;;;;;;5088195;28;45258;-67
2023/03/10 07:41:43;;;;;;;0.30;0.30;;;14.40;51.60;;;;;;5088444;28;45570;-67
2023/03/10 07:44:09;;;;;;;0.20;0.20;;;14.40;51.60;;;;;;5087921;28;45399;-68
2023/03/10 07:46:36;;;;;;;0.32;0.32;;;14.40;51.70;;;;;;5088494;28;45408;-68
2023/03/10 07:49:03;;;;;;;10.30;0.80;;;14.40;51.80;;;;;;5088103;28;46821;-68
2023/03/10 07:51:30;;;;;;;1.90;0.65;;;14.50;53.00;;;;;;5088078;28;45332;-68
2023/03/10 07:53:59;;;;;;;1.15;0.30;;;14.50;53.80;;;;;;5072444;27;45332;-69
2023/03/10 07:56:26;;;;;;;0.30;0.30;;;14.60;52.50;;;;;;5068018;28;45294;-67
2023/03/10 07:58:53;;;;;;;0.20;0.20;;;14.70;52.20;;;;;;5067627;28;46726;-67
2023/03/10 08:01:20;;;;;;;1.05;0.38;;;14.70;52.10;;;;;;5067525;28;45346;-68
2023/03/10 08:03:47;;;;;;;1.10;0.35;;;14.70;52.10;;;;;;5067681;28;45192;-67
2023/03/10 08:06:18;;;;;;;0.30;0.30;;;14.70;52.70;;;;;;5082162;28;45520;-67
2023/03/10 08:08:45;;;;;;;0.75;0.50;;;14.70;52.90;;;;;;5087847;28;46390;-67
2023/03/10 08:11:13;;;;;;;0.90;0.52;;;14.70;52.20;;;;;;5087657;28;45381;-67
2023/03/10 08:13:40;;;;;;;1.52;0.40;;;14.70;52.30;;;;;;5087803;28;45288;-67
2023/03/10 08:16:08;;;;;;;2.78;0.82;;;14.70;52.10;;;;;;5087954;28;45399;-67
2023/03/10 08:18:35;;;;;;;0.65;0.45;;;14.70;52.10;;;;;;5088004;28;46162;-67
2023/03/10 08:21:03;;;;;;;0.73;0.40;;;14.60;52.00;;;;;;5087371;28;45288;-67
2023/03/10 08:23:30;;;;;;;1.48;0.45;;;14.60;52.00;;;;;;5087583;28;45450;-67
2023/03/10 08:26:00;;;;;;;0.68;0.40;;;14.60;52.00;;;;;;5087824;28;45322;-67
2023/03/10 08:28:29;;;;;;;0.38;0.30;;;14.60;52.00;;;;;;5086109;28;46373;-67
2023/03/10 08:30:57;;;;;;;0.85;0.40;;;14.60;52.00;;;;;;5087678;28;45423;-66
2023/03/10 08:33:25;;;;;;;0.88;0.50;;;14.60;52.00;;;;;;5086768;28;45309;-66
2023/03/10 08:36:00;;;;;;;2.50;0.50;;;14.60;51.90;;;;;;5087352;28;45398;-67
2023/03/10 08:38:27;;;;;;;10.90;0.82;;;14.60;52.70;;;;;;5086899;28;46581;-68
2023/03/10 08:40:54;;;;;;;2.70;0.40;;;14.50;52.90;;;;;;5086584;28;45387;-68
2023/03/10 08:43:21;;;;;;;2.40;0.60;;;14.50;53.40;;;;;;5084946;27;45421;-71
2023/03/10 08:45:49;;;;;;;0.28;0.28;;;14.50;52.90;;;;;;5086842;28;45433;-67
2023/03/10 08:48:16;;;;;;;1.33;0.52;;;14.50;52.50;;;;;;5087292;27;46712;-66
2023/03/10 08:50:43;;;;;;;2.40;0.63;;;14.50;52.60;;;;;;5087369;27;45270;-66
2023/03/10 08:53:11;;;;;;;2.53;0.55;;;14.50;52.60;;;;;;5087398;28;45356;-67
2023/03/10 08:55:44;;;;;;;0.52;0.20;;;14.60;52.60;;;;;;5087317;28;45586;-66
2023/03/10 08:58:13;;;;;;;5.00;0.65;;;14.60;52.60;;;;;;5086840;27;45470;-71
2023/03/10 09:00:41;;;;;;;9.00;1.00;;;14.60;53.00;;;;;;5084174;28;45328;-67
2023/03/10 09:03:10;;;;;;;7.55;0.60;;;14.70;52.90;;;;;;5087181;28;45291;-65
2023/03/10 09:05:37;;;;;;;4.85;0.80;;;14.70;52.70;;;;;;5087440;28;45483;-67
2023/03/10 09:08:05;;;;;;;5.38;0.70;;;14.70;52.80;;;;;;5086929;28;46416;-67
2023/03/10 09:10:32;;;;;;;2.70;0.47;;;14.80;52.70;;;;;;5087198;28;45328;-66
2023/03/10 09:12:58;;;;;;;1.30;0.40;;;14.80;52.70;;;;;;5087042;28;45384;-66
2023/03/10 09:15:25;;;;;;;3.75;0.50;;;14.80;52.50;;;;;;5087200;28;45358;-67
2023/03/10 09:17:53;;;;;;;4.55;0.73;;;14.80;52.50;;;;;;5086928;28;46343;-66
2023/03/10 09:20:24;;;;;;;3.83;0.65;;;14.80;52.40;;;;;;5086826;28;45321;-70
2023/03/10 09:22:51;;;;;;;10.07;0.70;;;14.70;52.40;;;;;;5086710;28;45340;-69
2023/03/10 09:25:19;;;;;;;2.20;0.50;;;14.80;52.60;;;;;;5086914;28;45532;-71
2023/03/10 09:27:45;;;;;;;3.00;0.80;;;14.80;52.70;;;;;;5086792;28;47663;-71
2023/03/10 09:30:13;;;;;;;5.72;0.70;;;14.90;52.80;;;;;;5086747;28;45354;-71
2023/03/10 09:32:40;;;;;;;2.95;0.57;;;14.90;52.70;;;;;;5086057;28;45391;-67
2023/03/10 09:35:08;;;;;;;5.72;0.95;;;15.00;52.60;;;;;;5087008;28;45496;-67
2023/03/10 09:37:36;;;;;;;11.30;1.33;;;15.00;52.40;;;;;;5086044;28;46953;-65
2023/03/10 09:40:06;;;;;;;3.90;0.60;;;15.00;52.50;;;;;;5084137;28;45274;-66
2023/03/10 09:42:36;;;;;;;4.15;0.80;;;15.00;52.30;;;;;;5086551;28;45305;-66
2023/03/10 09:45:16;;;;;;;5.55;0.68;;;15.00;52.40;;;;;;5086750;28;45517;-66
2023/03/10 09:47:47;;;;;;;4.75;0.68;;;15.00;52.40;;;;;;5085878;28;46656;-66
2023/03/10 09:50:23;;;;;;;3.33;0.80;;;15.00;52.30;;;;;;5083580;28;45317;-66
2023/03/10 09:53:00;;;;;;;2.92;0.90;;;14.90;52.30;;;;;;5085924;28;45490;-66
2023/03/10 09:55:29;;;;;;;3.25;0.70;;;14.90;52.30;;;;;;5086587;28;45386;-67
2023/03/10 09:57:56;;;;;;;1.30;0.50;;;14.90;52.30;;;;;;5086107;28;45501;-67
2023/03/10 10:00:24;;;;;;;4.07;0.65;;;14.90;52.30;;;;;;5086333;28;45269;-67
2023/03/10 10:02:56;;;;;;;7.05;1.02;;;14.90;52.40;;;;;;5086367;28;45374;-67
2023/03/10 10:05:24;;;;;;;3.85;0.68;;;14.90;52.30;;;;;;5086207;28;45475;-67
2023/03/10 10:07:55;;;;;;;3.97;0.70;;;14.80;52.30;;;;;;5086276;28;45357;-68
2023/03/10 10:10:25;;;;;;;4.57;0.80;;;14.80;52.30;;;;;;5086233;28;45312;-67
2023/03/10 10:12:53;;;;;;;3.05;0.70;;;14.80;52.90;;;;;;5086467;28;45283;-67
2023/03/10 10:15:21;;;;;;;3.65;0.75;;;14.80;52.30;;;;;;5086048;28;45337;-67
2023/03/10 10:17:56;;;;;;;1.80;0.60;;;14.80;52.30;;;;;;5085970;28;45434;-67
2023/03/10 10:20:24;;;;;;;1.10;0.50;;;14.80;52.30;;;;;;5087054;28;45329;-68
2023/03/10 10:22:54;;;;;;;0.65;0.52;;;14.70;52.40;;;;;;5086027;28;45297;-67
2023/03/10 10:25:21;;;;;;;2.65;0.70;;;14.70;52.30;;;;;;5086116;28;45401;-67
2023/03/10 10:27:50;;;;;;;2.35;0.60;;;14.70;52.30;;;;;;5086177;28;45334;-67
2023/03/10 10:30:32;;;;;;;1.25;0.80;;;14.70;52.30;;;;;;5085867;28;45391;-67
2023/03/10 10:32:59;;;;;;;0.75;0.50;;;14.70;52.30;;;;;;5085563;28;45348;-68
2023/03/10 10:35:27;;;;;;;2.08;0.50;;;14.70;52.20;;;;;;5086020;28;45353;-67
2023/03/10 10:38:04;;;;;;;1.73;0.60;;;14.70;52.30;;;;;;5085846;28;45366;-67
2023/03/10 10:40:33;;;;;;;2.70;0.60;;;14.70;52.30;;;;;;5085922;28;45344;-67
2023/03/10 10:43:04;;;;;;;0.77;0.50;;;14.70;52.20;;;;;;5085684;28;45371;-67
2023/03/10 10:45:33;;;;;;;4.70;0.80;;;14.70;52.30;;;;;;5086098;28;45241;-68
2023/03/10 10:48:00;;;;;;;1.42;0.43;;;14.70;52.40;;;;;;5085692;28;46384;-67
2023/03/10 10:50:27;;;;;;;2.97;0.63;;;14.70;52.30;;;;;;5084662;28;45370;-69
2023/03/10 10:53:17;;;;;;;1.00;0.35;;;14.70;52.30;;;;;;5085242;28;45155;-71
2023/03/10 10:55:45;;;;;;;3.40;0.38;;;14.70;52.30;;;;;;5082319;27;45495;-72
2023/03/10 10:58:25;;;;;;;1.63;0.47;;;14.70;52.40;;;;;;5085439;28;45420;-69
2023/03/10 11:00:54;;;;;;;1.00;0.40;;;14.70;52.50;;;;;;5084782;28;45354;-69
2023/03/10 11:03:25;;;;;;;2.40;0.50;;;14.70;52.40;;;;;;5085881;28;45369;-69
2023/03/10 11:05:53;;;;;;;1.90;0.50;;;14.70;52.40;;;;;;5085840;28;45392;-68
2023/03/10 11:08:39;;;;;;;1.45;0.43;;;14.70;52.40;;;;;;5085354;28;45443;-68
2023/03/10 11:11:18;;;;;;;0.43;0.43;;;14.70;52.40;;;;;;5085385;28;45374;-70
2023/03/10 11:14:09;;;;;;;0.52;0.50;;;14.70;52.50;;;;;;5086015;28;45187;-69
2023/03/10 11:16:42;;;;;;;0.43;0.40;;;14.70;52.50;;;;;;5074885;28;45419;-68
2023/03/10 11:19:12;;;;;;;1.45;0.50;;;14.70;52.40;;;;;;5085513;28;45621;-68
2023/03/10 11:21:41;;;;;;;0.80;0.40;;;14.70;52.50;;;;;;5085174;28;45460;-70
2023/03/10 11:24:13;;;;;;;0.63;0.40;;;14.70;52.50;;;;;;5085377;28;45344;-71
2023/03/10 11:26:47;;;;;;;2.00;0.50;;;14.70;52.40;;;;;;5085405;28;45269;-70
2023/03/10 11:29:19;;;;;;;1.08;0.60;;;14.70;52.50;;;;;;5085440;28;45376;-71
2023/03/10 11:31:48;;;;;;;1.05;0.50;;;14.60;52.50;;;;;;5085137;28;45357;-71
2023/03/10 11:34:19;;;;;;;3.80;0.63;;;14.60;52.80;;;;;;5085639;28;45265;-73
2023/03/10 11:36:50;;;;;;;5.20;0.80;;;14.70;53.00;;;;;;5085804;28;45345;-71
2023/03/10 11:39:21;;;;;;;0.93;0.40;;;14.70;53.30;;;;;;5085415;28;46403;-70
2023/03/10 11:41:49;;;;;;;3.13;0.52;;;14.80;53.30;;;;;;5085523;28;45311;-69
2023/03/10 11:44:19;;;;;;;5.40;0.57;;;14.80;53.20;;;;;;5085509;28;45292;-70
2023/03/10 11:46:53;;;;;;;1.85;0.50;;;14.80;53.40;;;;;;5085678;28;45427;-70
2023/03/10 11:49:26;;;;;;;0.98;0.55;;;14.80;53.30;;;;;;5085449;28;45406;-71
2023/03/10 11:51:54;;;;;;;0.75;0.50;;;14.80;53.50;;;;;;5085920;27;45442;-71
2023/03/10 11:54:24;;;;;;;1.17;0.40;;;14.90;53.40;;;;;;5105592;27;45358;-71
2023/03/10 11:56:51;;;;;;;4.43;0.80;;;14.90;53.20;;;;;;5105602;27;45277;-71
2023/03/10 11:59:20;;;;;;;2.58;0.85;;;14.90;53.50;;;;;;5105587;27;45285;-72
2023/03/10 12:01:48;;;;;;;0.65;0.60;;;14.90;53.60;;;;;;5106208;27;45503;-71
2023/03/10 12:04:16;;;;;;;0.55;0.55;;;14.90;53.80;;;;;;5090963;27;45337;-66
2023/03/10 12:06:46;;;;;;;1.20;0.85;;;15.00;53.90;;;;;;5088104;28;45427;-67
2023/03/10 12:09:17;;;;;;;0.65;0.65;;;15.00;53.80;;;;;;5088039;28;45424;-66
2023/03/10 12:11:46;;;;;;;1.13;0.82;;;15.00;53.60;;;;;;5087670;28;45269;-67
2023/03/10 12:14:12;;;;;;;2.10;0.90;;;15.00;53.40;;;;;;5088084;28;45331;-67
2023/03/10 12:16:40;;;;;;;2.17;0.80;;;15.00;53.30;;;;;;5087790;28;45476;-68
2023/03/10 12:19:07;;;;;;;3.28;0.90;;;15.00;53.30;;;;;;5087771;28;46612;-67
2023/03/10 12:21:34;;;;;;;0.55;0.55;;;15.00;53.20;;;;;;5087372;28;45261;-67
2023/03/10 12:24:02;;;;;;;1.77;0.70;;;15.00;53.00;;;;;;5087870;28;45546;-68
2023/03/10 12:27:05;;;;;;;2.78;0.90;;;15.00;53.00;;;;;;5088116;28;45284;-68
2023/03/10 12:29:41;;;;;;;1.73;0.70;;;15.00;53.00;;;;;;5087842;28;45379;-67
2023/03/10 12:32:41;;;;;;;1.58;0.70;;;15.00;53.00;;;;;;5087560;28;45241;-68
2023/03/10 12:35:23;;;;;;;0.50;0.50;;;14.90;52.80;;;;;;5087838;28;45325;-66
2023/03/10 12:37:49;;;;;;;0.70;0.65;;;14.90;52.80;;;;;;5087810;28;45375;-67
2023/03/10 12:40:47;;;;;;;0.63;0.50;;;14.90;52.90;;;;;;5087346;28;45445;-67
2023/03/10 12:43:52;;;;;;;0.50;0.50;;;14.90;52.80;;;;;;5087453;28;45337;-67
2023/03/10 12:46:23;;;;;;;2.05;0.55;;;14.90;53.30;;;;;;5066693;28;45301;-67
2023/03/10 12:48:54;;;;;;;3.83;0.65;;;14.90;52.90;;;;;;5087561;28;45351;-68
2023/03/10 12:51:22;;;;;;;0.40;0.40;;;14.90;52.80;;;;;;5087262;28;45363;-68
2023/03/10 12:53:52;;;;;;;1.60;0.60;;;14.90;53.00;;;;;;5087005;28;45454;-68